createdAt,value
2022-09-06T03:34:36.521Z,97901.75
2022-09-06T03:39:38.592Z,97901.75
2022-09-06T03:44:40.338Z,97906.73
2022-09-06T03:49:42.092Z,97906.73
2022-09-06T03:54:43.760Z,97907.33
2022-09-06T03:59:45.408Z,97907.33
2022-09-06T04:04:47.229Z,97906.04
2022-09-06T04:09:49.402Z,97906.04
2022-09-06T04:14:51.112Z,97896.5
2022-09-06T04:19:52.757Z,97896.5
2022-09-06T04:24:54.414Z,97897.34
2022-09-06T04:29:56.087Z,97897.34
2022-09-06T04:34:57.849Z,97906.23
2022-09-06T04:39:59.922Z,97891.52
2022-09-06T04:45:01.881Z,97891.52
2022-09-06T04:50:03.786Z,97885.08
2022-09-06T04:55:06.038Z,97885.08
2022-09-06T05:00:08.516Z,97884.88
2022-09-06T05:05:10.265Z,97884.88
2022-09-06T05:10:11.941Z,97885.94
2022-09-06T05:15:13.776Z,97885.94
2022-09-06T05:20:15.960Z,97887.91
2022-09-06T05:25:17.608Z,97887.91
2022-09-06T05:30:19.300Z,97889.91
2022-09-06T05:35:21.002Z,97889.91
2022-09-06T05:40:22.629Z,97889.34
2022-09-06T05:45:24.498Z,97889.34
2022-09-06T05:50:26.172Z,97891.55
2022-09-06T05:55:27.903Z,97895.63
2022-09-06T06:00:29.661Z,97895.63
2022-09-06T06:05:31.333Z,97897.23
2022-09-06T06:10:39.084Z,97897.23
2022-09-06T06:15:40.678Z,97896.09
2022-09-06T06:20:42.404Z,97896.09
2022-09-06T06:25:44.002Z,97889.64
2022-09-06T06:30:45.733Z,97889.64
2022-09-06T06:45:58.731Z,97903.92
2022-09-06T06:51:00.498Z,97903.92
2022-09-06T07:01:08.075Z,97909.73
2022-09-06T07:11:12.732Z,97914.48
2022-09-06T07:16:15.683Z,97914.48
2022-09-06T07:26:24.987Z,97921.52
2022-09-06T07:36:33.042Z,97923.16
2022-09-06T07:41:34.702Z,97930.58
2022-09-06T07:46:36.577Z,97930.58
2022-09-06T07:51:38.464Z,97930.77
2022-09-06T07:56:40.680Z,97930.77
2022-09-06T08:01:42.721Z,97922.05
2022-09-06T08:11:51.788Z,97919.63
2022-09-06T08:16:53.506Z,97919.63
2022-09-06T08:21:55.199Z,97914.22
2022-09-06T08:26:56.911Z,97917.77
2022-09-06T08:31:58.755Z,97917.77
2022-09-06T08:37:00.522Z,97909.77
2022-09-06T08:42:03.983Z,97909.77
2022-09-06T08:47:07.184Z,97900.88
2022-09-06T09:02:24.369Z,97904.78
2022-09-06T09:07:33.064Z,97902.34
2022-09-06T09:12:38.017Z,97902.34
2022-09-06T09:17:39.758Z,97885.49
2022-09-06T09:22:41.523Z,97885.49
2022-09-06T09:27:44.513Z,97886.12
2022-09-06T09:32:46.150Z,97886.12
2022-09-06T09:53:09.676Z,97850.53
2022-09-06T09:58:19.491Z,97850.53
2022-09-06T10:08:27.216Z,97841.68
2022-09-06T10:13:29.542Z,97830.1
2022-09-06T10:18:32.795Z,97830.1
2022-09-06T10:28:46.053Z,97821.65
2022-09-06T10:44:10.391Z,97811.52
2022-09-06T10:49:15.535Z,97808.98
2022-09-06T10:54:20.072Z,97808.98
2022-09-06T11:09:43.582Z,97811.69
2022-09-06T11:14:45.683Z,97811.69
2022-09-06T11:19:50.222Z,97795.07
2022-09-06T11:30:02.392Z,97783.03
2022-09-06T11:35:06.185Z,97783.03
2022-09-06T11:45:20.223Z,97769.91
2022-09-06T11:55:33.955Z,97756.2
2022-09-06T12:00:35.645Z,97756.2
2022-09-06T12:10:48.637Z,97743.97
2022-09-06T12:15:52.778Z,97733.58
2022-09-06T12:21:01.433Z,97733.58
2022-09-06T12:26:03.394Z,97718.47
2022-09-06T12:36:17.047Z,97702.29
2022-09-06T12:41:18.745Z,97702.29
2022-09-06T12:46:20.674Z,97695.67
2022-09-06T12:51:22.499Z,97695.67
2022-09-06T12:56:25.102Z,97669.05
2022-09-06T13:01:30.072Z,97669.05
2022-09-06T13:06:33.690Z,97653.83
2022-09-06T13:11:37.299Z,97642.86
2022-09-06T13:16:43.199Z,97642.86
2022-09-06T13:21:45.851Z,97646.28
2022-09-06T13:26:47.535Z,97646.28
2022-09-06T13:31:50.423Z,97645.5
2022-09-06T13:36:53.132Z,97645.5
2022-09-06T13:41:55.486Z,97627.44
2022-09-06T13:46:57.191Z,97627.44
2022-09-06T13:51:59.751Z,97610.66
2022-09-06T13:57:01.415Z,97610.66
2022-09-06T14:02:05.102Z,97610.8
2022-09-06T14:07:06.879Z,97610.8
2022-09-06T14:12:08.566Z,97615.44
2022-09-06T14:17:10.234Z,97615.98
2022-09-06T14:22:12.081Z,97615.98
2022-09-06T14:27:13.787Z,97610
2022-09-06T14:32:23.009Z,97610
2022-09-06T14:37:24.949Z,97610.83
2022-09-06T14:42:27.036Z,97610.83
2022-09-06T14:47:28.830Z,97618.66
2022-09-06T14:52:30.446Z,97618.66
2022-09-06T14:57:32.476Z,97632.86
2022-09-06T15:02:34.612Z,97632.86
2022-09-06T15:07:36.439Z,97631.66
2022-09-06T15:12:38.075Z,97631.66
2022-09-06T15:17:39.764Z,97643.83
2022-09-06T15:22:41.635Z,97643.83
2022-09-06T15:27:43.303Z,97650.42
2022-09-06T15:32:44.887Z,97651.25
2022-09-06T15:37:46.780Z,97651.25
2022-09-06T15:42:48.386Z,97660.7
2022-09-06T15:47:50.428Z,97660.7
2022-09-06T15:52:52.124Z,97658.28
2022-09-06T15:57:53.806Z,97658.28
2022-09-06T16:02:57.519Z,97662.18
2022-09-06T16:07:59.311Z,97662.18
2022-09-06T16:13:01.005Z,97654.46
2022-09-06T16:18:03.034Z,97654.46
2022-09-06T16:23:04.660Z,97673.14
2022-09-06T16:28:06.422Z,97673.14
2022-09-06T16:33:08.129Z,97659.05
2022-09-06T16:38:09.953Z,97656.73
2022-09-06T16:43:11.686Z,97656.73
2022-09-06T16:48:13.305Z,97647.85
2022-09-06T16:53:21.518Z,97647.85
2022-09-06T16:58:23.972Z,97628.91
2022-09-06T17:03:25.703Z,97628.91
2022-09-06T17:08:27.657Z,97620.13
2022-09-06T17:13:29.649Z,97620.13
2022-09-06T17:18:32.683Z,97619.94
2022-09-06T17:23:34.886Z,97619.94
2022-09-06T17:28:37.301Z,97615.25
2022-09-06T17:33:39.514Z,97615.25
2022-09-06T17:38:42.451Z,97626.26
2022-09-06T17:43:44.503Z,97626.26
2022-09-06T17:48:46.695Z,97635.33
2022-09-06T17:53:48.651Z,97641.3
2022-09-06T17:58:52.547Z,97641.3
2022-09-06T18:03:55.117Z,97642.02
2022-09-06T18:08:58.853Z,97642.02
2022-09-06T18:14:02.315Z,97656.97
2022-09-06T18:19:05.473Z,97656.97
2022-09-06T18:24:08.370Z,97654.16
2022-09-06T18:29:11.160Z,97654.16
2022-09-06T18:34:14.713Z,97657.03
2022-09-06T18:39:17.182Z,97657.03
2022-09-06T18:44:20.075Z,97650.25
2022-09-06T18:49:22.678Z,97650.25
2022-09-06T18:54:25.380Z,97652.56
2022-09-06T18:59:28.055Z,97652.56
2022-09-06T19:04:32.028Z,97651.91
2022-09-06T19:09:34.703Z,97666.27
2022-09-06T19:14:37.436Z,97666.27
2022-09-06T19:19:40.208Z,97662.77
2022-09-06T19:24:42.665Z,97662.77
2022-09-06T19:29:45.157Z,97658.25
2022-09-06T19:34:47.952Z,97658.25
2022-09-06T19:39:50.923Z,97652.3
2022-09-06T19:44:53.555Z,97652.3
2022-09-06T19:49:56.174Z,97653.82
2022-09-06T19:54:58.973Z,97653.82
2022-09-06T20:00:01.438Z,97653.48
2022-09-06T20:05:04.122Z,97653.48
2022-09-06T20:10:07.029Z,97644.39
2022-09-06T20:15:11.269Z,97644.39
2022-09-06T20:20:14.177Z,97642.95
2022-09-06T20:25:16.933Z,97652.52
2022-09-06T20:30:19.440Z,97652.52
2022-09-06T20:35:22.064Z,97646.06
2022-09-06T20:40:24.697Z,97646.06
2022-09-06T20:45:27.469Z,97644.11
2022-09-06T20:50:30.100Z,97644.11
2022-09-06T20:55:32.652Z,97644.11
2022-09-06T21:00:39.285Z,97644.11
2022-09-06T21:05:41.420Z,97644.11
2022-09-06T21:10:43.113Z,97644.11
2022-09-06T21:15:46.973Z,97644.11
2022-09-06T21:20:53.540Z,97644.11
2022-09-06T21:25:55.904Z,97644.11
2022-09-06T21:30:59.767Z,97644.11
2022-09-06T21:36:03.135Z,97644.11
2022-09-06T21:41:05.519Z,97644.11
